sensor_id;sensor_type;location;lat;lon;timestamp;temperature;humidity
16907;DHT22;8570;52.380;4.654;2023-04-24T00:04:47;10.90;99.90
16907;DHT22;8570;52.380;4.654;2023-04-24T00:09:49;10.90;99.90
16907;DHT22;8570;52.380;4.654;2023-04-24T00:14:53;10.90;99.90
16907;DHT22;8570;52.380;4.654;2023-04-24T00:19:55;10.90;99.90
16907;DHT22;8570;52.380;4.654;2023-04-24T00:24:59;10.90;99.90
16907;DHT22;8570;52.380;4.654;2023-04-24T00:30:03;10.80;99.90
16907;DHT22;8570;52.380;4.654;2023-04-24T00:35:06;10.80;99.90
16907;DHT22;8570;52.380;4.654;2023-04-24T00:40:08;10.70;99.90
16907;DHT22;8570;52.380;4.654;2023-04-24T00:45:12;10.60;99.90
16907;DHT22;8570;52.380;4.654;2023-04-24T00:50:15;10.60;99.90
16907;DHT22;8570;52.380;4.654;2023-04-24T00:55:18;10.60;99.90
16907;DHT22;8570;52.380;4.654;2023-04-24T01:00:23;10.50;99.90
16907;DHT22;8570;52.380;4.654;2023-04-24T01:05:26;10.50;99.90
16907;DHT22;8570;52.380;4.654;2023-04-24T01:10:29;10.50;99.90
16907;DHT22;8570;52.380;4.654;2023-04-24T01:15:34;10.40;99.90
16907;DHT22;8570;52.380;4.654;2023-04-24T01:20:37;10.40;99.90
16907;DHT22;8570;52.380;4.654;2023-04-24T01:25:42;10.20;99.90
16907;DHT22;8570;52.380;4.654;2023-04-24T01:30:44;10.10;99.90
16907;DHT22;8570;52.380;4.654;2023-04-24T01:35:47;10.10;99.90
16907;DHT22;8570;52.380;4.654;2023-04-24T01:40:51;10.00;99.90
16907;DHT22;8570;52.380;4.654;2023-04-24T01:45:53;10.00;99.90
16907;DHT22;8570;52.380;4.654;2023-04-24T01:50:56;9.90;99.90
16907;DHT22;8570;52.380;4.654;2023-04-24T01:55:59;9.80;99.90
16907;DHT22;8570;52.380;4.654;2023-04-24T02:01:03;9.80;99.90
16907;DHT22;8570;52.380;4.654;2023-04-24T02:06:05;9.70;99.90
16907;DHT22;8570;52.380;4.654;2023-04-24T02:11:10;9.60;99.90
16907;DHT22;8570;52.380;4.654;2023-04-24T02:16:12;9.50;99.90
16907;DHT22;8570;52.380;4.654;2023-04-24T02:21:14;9.50;99.90
16907;DHT22;8570;52.380;4.654;2023-04-24T02:26:17;9.50;99.90
16907;DHT22;8570;52.380;4.654;2023-04-24T02:31:19;9.50;99.90
16907;DHT22;8570;52.380;4.654;2023-04-24T02:36:21;9.50;99.90
16907;DHT22;8570;52.380;4.654;2023-04-24T02:41:24;9.50;99.90
16907;DHT22;8570;52.380;4.654;2023-04-24T02:46:31;9.50;99.90
16907;DHT22;8570;52.380;4.654;2023-04-24T02:51:33;9.50;99.90
16907;DHT22;8570;52.380;4.654;2023-04-24T02:56:36;9.50;99.90
16907;DHT22;8570;52.380;4.654;2023-04-24T03:01:38;9.50;99.90
16907;DHT22;8570;52.380;4.654;2023-04-24T03:06:40;9.60;99.90
16907;DHT22;8570;52.380;4.654;2023-04-24T03:11:44;9.60;99.90
16907;DHT22;8570;52.380;4.654;2023-04-24T03:16:45;9.60;99.90
16907;DHT22;8570;52.380;4.654;2023-04-24T03:21:48;9.60;99.90
16907;DHT22;8570;52.380;4.654;2023-04-24T03:26:51;9.70;99.90
16907;DHT22;8570;52.380;4.654;2023-04-24T03:31:53;9.70;99.90
16907;DHT22;8570;52.380;4.654;2023-04-24T03:36:55;9.60;99.90
16907;DHT22;8570;52.380;4.654;2023-04-24T03:41:58;9.60;99.90
16907;DHT22;8570;52.380;4.654;2023-04-24T03:47:01;9.50;99.90
16907;DHT22;8570;52.380;4.654;2023-04-24T03:52:02;9.50;99.90
16907;DHT22;8570;52.380;4.654;2023-04-24T03:57:06;9.40;99.90
16907;DHT22;8570;52.380;4.654;2023-04-24T04:02:08;9.40;99.90
16907;DHT22;8570;52.380;4.654;2023-04-24T04:07:10;9.30;99.90
16907;DHT22;8570;52.380;4.654;2023-04-24T04:12:13;9.30;99.90
16907;DHT22;8570;52.380;4.654;2023-04-24T04:17:15;9.30;99.90
16907;DHT22;8570;52.380;4.654;2023-04-24T04:22:17;9.30;99.90
16907;DHT22;8570;52.380;4.654;2023-04-24T04:27:20;9.30;99.90
16907;DHT22;8570;52.380;4.654;2023-04-24T04:32:22;9.40;99.90
16907;DHT22;8570;52.380;4.654;2023-04-24T04:37:24;9.30;99.90
16907;DHT22;8570;52.380;4.654;2023-04-24T04:42:28;9.40;99.90
16907;DHT22;8570;52.380;4.654;2023-04-24T04:47:30;9.40;99.90
16907;DHT22;8570;52.380;4.654;2023-04-24T04:52:33;9.50;99.90
16907;DHT22;8570;52.380;4.654;2023-04-24T04:57:36;9.50;99.90
16907;DHT22;8570;52.380;4.654;2023-04-24T05:02:38;9.50;99.90
16907;DHT22;8570;52.380;4.654;2023-04-24T05:07:40;9.50;99.90
16907;DHT22;8570;52.380;4.654;2023-04-24T05:12:43;9.50;99.90
16907;DHT22;8570;52.380;4.654;2023-04-24T05:17:45;9.40;99.90
16907;DHT22;8570;52.380;4.654;2023-04-24T05:22:47;9.30;99.90
16907;DHT22;8570;52.380;4.654;2023-04-24T05:27:50;9.30;99.90
16907;DHT22;8570;52.380;4.654;2023-04-24T05:32:53;9.20;99.90
16907;DHT22;8570;52.380;4.654;2023-04-24T05:37:55;9.10;99.90
16907;DHT22;8570;52.380;4.654;2023-04-24T05:42:59;9.10;99.90
16907;DHT22;8570;52.380;4.654;2023-04-24T09:45:20;9.20;99.90
16907;DHT22;8570;52.380;4.654;2023-04-24T09:50:22;9.20;99.90
16907;DHT22;8570;52.380;4.654;2023-04-24T09:55:24;9.30;99.90
16907;DHT22;8570;52.380;4.654;2023-04-24T10:00:29;9.40;99.90
16907;DHT22;8570;52.380;4.654;2023-04-24T10:05:33;9.40;99.90
16907;DHT22;8570;52.380;4.654;2023-04-24T10:10:42;9.30;99.90
16907;DHT22;8570;52.380;4.654;2023-04-24T10:15:47;9.30;99.90
16907;DHT22;8570;52.380;4.654;2023-04-24T10:20:50;9.20;99.90
16907;DHT22;8570;52.380;4.654;2023-04-24T10:25:52;9.20;99.90
16907;DHT22;8570;52.380;4.654;2023-04-24T10:30:57;9.30;99.90
16907;DHT22;8570;52.380;4.654;2023-04-24T10:56:24;9.90;99.90
16907;DHT22;8570;52.380;4.654;2023-04-24T11:01:29;10.00;99.90
16907;DHT22;8570;52.380;4.654;2023-04-24T11:06:34;10.10;99.90
16907;DHT22;8570;52.380;4.654;2023-04-24T11:11:38;10.00;99.90
16907;DHT22;8570;52.380;4.654;2023-04-24T11:16:47;10.10;99.90
16907;DHT22;8570;52.380;4.654;2023-04-24T11:21:58;10.20;99.90
16907;DHT22;8570;52.380;4.654;2023-04-24T11:27:07;10.30;99.90
16907;DHT22;8570;52.380;4.654;2023-04-24T16:35:31;10.70;99.90
16907;DHT22;8570;52.380;4.654;2023-04-24T16:40:33;10.60;99.90
16907;DHT22;8570;52.380;4.654;2023-04-24T16:45:35;10.60;99.90
16907;DHT22;8570;52.380;4.654;2023-04-24T16:50:38;10.50;99.90
16907;DHT22;8570;52.380;4.654;2023-04-24T16:55:40;10.40;99.90
16907;DHT22;8570;52.380;4.654;2023-04-24T17:00:43;10.40;99.90
16907;DHT22;8570;52.380;4.654;2023-04-24T17:05:48;10.30;99.90
16907;DHT22;8570;52.380;4.654;2023-04-24T17:10:50;10.30;99.90
16907;DHT22;8570;52.380;4.654;2023-04-24T17:15:52;10.30;99.90
16907;DHT22;8570;52.380;4.654;2023-04-24T17:20:55;10.20;99.90
16907;DHT22;8570;52.380;4.654;2023-04-24T17:25:57;10.10;99.90
16907;DHT22;8570;52.380;4.654;2023-04-24T17:30:59;10.10;99.90
16907;DHT22;8570;52.380;4.654;2023-04-24T17:36:03;10.10;99.90
16907;DHT22;8570;52.380;4.654;2023-04-24T17:41:06;10.10;99.90
16907;DHT22;8570;52.380;4.654;2023-04-24T17:46:08;10.00;99.90
16907;DHT22;8570;52.380;4.654;2023-04-24T17:51:11;10.00;99.90
16907;DHT22;8570;52.380;4.654;2023-04-24T17:56:13;9.90;99.90
16907;DHT22;8570;52.380;4.654;2023-04-24T18:01:15;9.80;99.90
16907;DHT22;8570;52.380;4.654;2023-04-24T18:06:18;9.70;99.90
16907;DHT22;8570;52.380;4.654;2023-04-24T18:11:20;9.70;99.90
16907;DHT22;8570;52.380;4.654;2023-04-24T18:16:22;9.70;99.90
16907;DHT22;8570;52.380;4.654;2023-04-24T18:21:25;9.60;99.90
16907;DHT22;8570;52.380;4.654;2023-04-24T18:26:27;9.60;99.90
16907;DHT22;8570;52.380;4.654;2023-04-24T23:14:17;7.60;99.90
16907;DHT22;8570;52.380;4.654;2023-04-24T23:19:19;7.50;99.90
16907;DHT22;8570;52.380;4.654;2023-04-24T23:24:22;7.50;99.90
16907;DHT22;8570;52.380;4.654;2023-04-24T23:29:24;7.50;99.90
16907;DHT22;8570;52.380;4.654;2023-04-24T23:34:26;7.40;99.90
16907;DHT22;8570;52.380;4.654;2023-04-24T23:39:29;7.40;99.90
16907;DHT22;8570;52.380;4.654;2023-04-24T23:44:31;7.40;99.90
16907;DHT22;8570;52.380;4.654;2023-04-24T23:49:37;7.30;99.90
16907;DHT22;8570;52.380;4.654;2023-04-24T23:54:40;7.30;99.90
16907;DHT22;8570;52.380;4.654;2023-04-24T23:59:42;7.30;99.90
